CW1018 Tampa FL US current weather conditions

sailwx.info

Wind from 292 at 4 knots gusting 6

Air temperature 15.0° C

Last reported at 2019-Mar-22 05:00 UTC.
Time now 2019-Mar-22 05:57 UTC

Location: N 28°04' W 082°26'.
View on Google Maps.

See reports from other nearby stations

  
Tides and Currents Weather Stations Pressure Air Temp Water Temp Dewpoint Dewpoint Depression Visibility Wind Speed Wind Dir Waves Ship Positions
date/time (UTC)wind fromknots sea level pressurealtimeterstation pressurevisibilityair tempwater tempwave heightnotes
2019-Mar-22 05:00 292 4 gusting 6 15.0
2019-Mar-22 04:45 292 4 gusting 6 15.0
2019-Mar-22 04:30 292 5 gusting 6 15.6
2019-Mar-22 04:15 292 5 gusting 6 15.6
2019-Mar-22 04:00 270 5 gusting 6 15.6
2019-Mar-22 03:45 292 4 gusting 7 15.6
2019-Mar-22 03:30 270 3 gusting 6 16.1
2019-Mar-22 03:15 270 3 gusting 5 16.1
2019-Mar-22 03:00 292 3 gusting 6 16.1
2019-Mar-22 02:45 292 6 gusting 9 16.1
2019-Mar-22 02:30 247 7 gusting 11 16.7
2019-Mar-22 02:15 292 5 gusting 6 16.7
2019-Mar-22 02:00 270 4 gusting 6 16.7
2019-Mar-22 01:45 247 5 gusting 7 17.2
2019-Mar-22 01:30 292 4 gusting 7 17.2
2019-Mar-22 01:15 225 6 gusting 8 17.2
2019-Mar-22 01:00 315 6 gusting 10 17.8
2019-Mar-22 00:45 247 4 gusting 7 17.8
2019-Mar-22 00:30 247 4 gusting 6 17.8
2019-Mar-22 00:15 247 9 gusting 13 17.8
2019-Mar-22 00:00 270 7 gusting 9 18.3
2019-Mar-21 23:45 247 8 gusting 10 18.3
2019-Mar-21 23:30 247 8 gusting 11 18.9
2019-Mar-21 23:15 247 6 gusting 9 18.9
2019-Mar-21 23:00 247 6 gusting 9 18.9
2019-Mar-21 22:45 225 6 gusting 11 19.4
2019-Mar-21 22:30 270 10 gusting 13 19.4
2019-Mar-21 22:15 270 6 gusting 9 20.0
2019-Mar-21 22:00 270 10 gusting 15 20.0
2019-Mar-21 21:45 315 11 gusting 19 20.0
2019-Mar-21 21:30 247 4 gusting 6 20.6
2019-Mar-21 21:15 270 12 gusting 16 20.6
2019-Mar-21 21:00 292 11 gusting 17 21.1
2019-Mar-21 20:45 270 8 gusting 14 21.1
2019-Mar-21 20:30 315 12 gusting 19 21.1
2019-Mar-21 20:15 292 10 gusting 16 21.1
2019-Mar-21 20:00 247 11 gusting 17 21.1
2019-Mar-21 19:45 270 7 gusting 11 21.1
2019-Mar-21 19:30 337 6 gusting 13 21.1
2019-Mar-21 19:15 292 6 gusting 8 21.1
2019-Mar-21 19:00 315 8 gusting 13 20.6
2019-Mar-21 18:45 315 11 gusting 16 21.1
2019-Mar-21 18:30 292 7 gusting 9 20.6
2019-Mar-21 18:15 292 6 gusting 8 20.6
2019-Mar-21 18:00 270 9 gusting 14 20.6
2019-Mar-21 17:45 247 9 gusting 9 21.1
2019-Mar-21 17:30 270 6 gusting 13 21.1
2019-Mar-21 17:15 270 8 gusting 11 21.1
2019-Mar-21 17:00 225 2 gusting 6 20.6
2019-Mar-21 16:45 292 6 gusting 10 20.6
2019-Mar-21 16:30 337 0 gusting 1 20.6
2019-Mar-21 16:15 247 4 gusting 8 20.6
2019-Mar-21 16:00 337 5 gusting 9 20.6
2019-Mar-21 15:45 292 5 gusting 7 20.0
2019-Mar-21 15:30 337 4 gusting 7 19.4
2019-Mar-21 15:15 315 7 gusting 8 20.0
2019-Mar-21 15:00 337 4 gusting 6 18.9
2019-Mar-21 14:45 337 6 gusting 11 18.9
2019-Mar-21 14:30 337 4 gusting 6 17.8
2019-Mar-21 14:15 292 3 gusting 6 17.2
2019-Mar-21 14:00 292 5 gusting 7 16.7
2019-Mar-21 13:45 360 2 gusting 5 16.1
2019-Mar-21 13:30 360 5 gusting 7 15.6
2019-Mar-21 13:15 315 8 gusting 10 16.1
2019-Mar-21 13:00 270 3 gusting 6 16.1
2019-Mar-21 12:45 337 4 gusting 6 16.1
2019-Mar-21 12:30 315 6 gusting 6 15.0
2019-Mar-21 12:15 292 2 gusting 5 13.9
2019-Mar-21 12:00 292 13.3
2019-Mar-21 11:45 315 3 gusting 3 13.3
2019-Mar-21 11:30 360 1 gusting 1 13.3
2019-Mar-21 11:15 315 2 gusting 3 13.3
2019-Mar-21 11:00 315 1 gusting 1 13.3
2019-Mar-21 10:45 337 3 gusting 4 13.3
2019-Mar-21 10:30 315 0 gusting 1 13.9
2019-Mar-21 10:15 315 1 gusting 1 13.9
2019-Mar-21 10:00 337 1 gusting 1 13.9
2019-Mar-21 09:45 315 1 gusting 2 14.4
2019-Mar-21 09:30 315 14.4
2019-Mar-21 09:15 292 2 gusting 2 14.4
2019-Mar-21 09:00 337 2 gusting 2 14.4
2019-Mar-21 08:45 337 0 gusting 1 14.4
2019-Mar-21 08:30 337 2 gusting 2 15.0
2019-Mar-21 08:15 337 3 gusting 4 15.0
2019-Mar-21 08:00 337 2 gusting 3 15.0
2019-Mar-21 07:45 337 3 gusting 4 15.0
2019-Mar-21 07:30 337 3 gusting 4 15.6
2019-Mar-21 07:15 315 0 gusting 2 15.6
2019-Mar-21 07:00 315 3 gusting 3 15.6
2019-Mar-21 06:45 337 2 gusting 3 16.1
2019-Mar-21 06:30 315 0 gusting 3 16.1
2019-Mar-21 06:15 337 3 gusting 4 16.1
2019-Mar-21 06:00 315 1 gusting 2 16.1
2019-Mar-21 05:45 315 4 gusting 5 16.1
2019-Mar-21 05:30 315 3 gusting 3 16.7
2019-Mar-21 05:15 337 3 gusting 3 16.7
2019-Mar-21 05:00 315 2 gusting 3 16.7
2019-Mar-21 04:45 315 4 gusting 6 16.7
2019-Mar-21 04:30 315 6 gusting 6 17.2
2019-Mar-21 04:15 315 2 gusting 3 17.2
2019-Mar-21 04:00 337 5 gusting 6 17.8
2019-Mar-21 03:45 315 3 gusting 5 17.8
2019-Mar-21 03:30 315 4 gusting 6 17.8
2019-Mar-21 03:15 315 4 gusting 6 17.8
2019-Mar-21 03:00 315 6 gusting 9 17.8
2019-Mar-21 02:45 315 4 gusting 6 17.8
2019-Mar-21 02:30 292 3 gusting 5 17.8
2019-Mar-21 02:15 315 4 gusting 6 18.3
2019-Mar-21 02:00 315 6 gusting 7 18.3
2019-Mar-21 01:45 337 4 gusting 6 18.3
2019-Mar-21 01:30 315 4 gusting 5 18.3
2019-Mar-21 01:15 315 5 gusting 7 18.3
2019-Mar-21 01:00 315 7 gusting 9 18.9
2019-Mar-21 00:45 292 3 gusting 5 19.4
2019-Mar-21 00:30 337 7 gusting 9 19.4
2019-Mar-21 00:15 315 4 gusting 6 20.0
2019-Mar-21 00:00 315 5 gusting 7 21.1
2019-Mar-20 23:45 360 5 gusting 6 21.7
2019-Mar-20 23:30 112 1 gusting 1 21.7
2019-Mar-20 23:15 180 2 gusting 4 21.7
2019-Mar-20 23:00 180 3 gusting 4 21.7
2019-Mar-20 22:45 022 6 gusting 7 21.7
2019-Mar-20 22:30 337 3 gusting 5 22.2
2019-Mar-20 22:15 360 5 gusting 6 21.7
2019-Mar-20 22:00 180 3 gusting 4 21.7
2019-Mar-20 21:45 022 6 gusting 7 22.2
2019-Mar-20 21:30 022 1 gusting 3 22.2
2019-Mar-20 21:15 360 4 gusting 6 21.7
2019-Mar-20 21:00 022 7 gusting 9 22.2
2019-Mar-20 20:45 360 6 gusting 7 22.2
2019-Mar-20 20:30 337 7 gusting 12 21.7
2019-Mar-20 20:15 022 6 gusting 7 22.2
2019-Mar-20 20:00 337 7 gusting 9 22.2
2019-Mar-20 19:45 360 5 gusting 7 21.7
2019-Mar-20 19:30 337 8 gusting 13 21.7
2019-Mar-20 19:15 360 7 gusting 10 21.7
2019-Mar-20 19:00 337 6 gusting 7 21.7
2019-Mar-20 18:45 337 10 gusting 13 21.7
2019-Mar-20 18:30 360 10 gusting 11 22.2
2019-Mar-20 18:15 360 6 gusting 9 21.1
2019-Mar-20 18:00 360 9 gusting 11 21.1
2019-Mar-20 17:45 360 8 gusting 9 21.1
2019-Mar-20 17:30 022 6 gusting 10 20.6
2019-Mar-20 17:15 337 10 gusting 14 20.0
2019-Mar-20 17:00 360 10 gusting 13 20.0
2019-Mar-20 16:45 180 6 gusting 11 19.4
2019-Mar-20 16:30 022 7 gusting 12 20.0
2019-Mar-20 16:15 022 2 gusting 4 20.0
2019-Mar-20 16:00 360 6 gusting 7 19.4
2019-Mar-20 15:45 337 11 gusting 13 19.4
2019-Mar-20 15:30 360 8 gusting 11 18.3
2019-Mar-20 15:15 022 10 gusting 13 17.8
2019-Mar-20 15:00 022 10 gusting 13 17.8
2019-Mar-20 14:45 360 7 gusting 12 17.2
2019-Mar-20 14:30 337 10 gusting 13 17.2
2019-Mar-20 14:15 360 8 gusting 13 16.7
2019-Mar-20 14:00 022 10 gusting 15 16.7
2019-Mar-20 13:45 022 10 gusting 15 16.1
2019-Mar-20 13:30 022 6 gusting 9 15.6
2019-Mar-20 13:15 360 6 gusting 7 15.0
2019-Mar-20 13:00 360 10 gusting 13 15.0
2019-Mar-20 12:45 360 6 gusting 10 14.4
2019-Mar-20 12:30 337 5 gusting 6 14.4
2019-Mar-20 12:15 315 6 gusting 6 15.0
2019-Mar-20 12:00 360 6 gusting 9 15.0
2019-Mar-20 11:45 360 5 gusting 10 15.0
2019-Mar-20 11:30 360 6 gusting 9 15.0
2019-Mar-20 11:15 360 9 gusting 12 15.0
2019-Mar-20 11:00 360 5 gusting 8 15.0
2019-Mar-20 10:45 337 9 gusting 12 15.0
2019-Mar-20 10:30 360 5 gusting 9 15.0
2019-Mar-20 10:15 337 8 gusting 12 15.0
2019-Mar-20 10:00 360 7 gusting 12 15.0
2019-Mar-20 09:45 337 7 gusting 13 15.0
2019-Mar-20 09:30 360 10 gusting 13 15.0
2019-Mar-20 09:15 360 10 gusting 13 15.0
2019-Mar-20 09:00 360 7 gusting 11 15.0
2019-Mar-20 08:45 360 9 gusting 11 14.4
2019-Mar-20 08:30 360 9 gusting 13 14.4
2019-Mar-20 08:15 022 12 gusting 16 14.4
2019-Mar-20 08:00 337 10 gusting 13 14.4
2019-Mar-20 07:45 360 11 gusting 14 14.4
2019-Mar-20 07:30 022 10 gusting 13 14.4
2019-Mar-20 07:15 360 12 gusting 19 14.4
2019-Mar-20 07:00 337 11 gusting 19 14.4
2019-Mar-20 06:45 022 9 gusting 12 14.4
2019-Mar-20 06:30 022 6 gusting 8 14.4
2019-Mar-20 06:15 022 10 gusting 14 14.4
2019-Mar-20 06:00 360 6 gusting 7 14.4
2019-Mar-20 05:45 337 9 gusting 13 14.4
2019-Mar-20 05:30 360 11 gusting 15 14.4
2019-Mar-20 05:15 022 7 gusting 10 15.0
2019-Mar-20 05:00 360 13 gusting 21 15.0